createdAt,value
2022-09-23T00:01:47.401Z,11.95
2022-09-23T00:04:14.044Z,7.00
2022-09-23T00:06:40.560Z,6.70
2022-09-23T00:09:07.240Z,9.02
2022-09-23T00:11:33.796Z,9.88
2022-09-23T00:14:01.827Z,9.35
2022-09-23T00:16:31.300Z,7.35
2022-09-23T00:18:58.239Z,6.82
2022-09-23T00:21:25.163Z,6.10
2022-09-23T00:23:51.809Z,6.82
2022-09-23T00:26:21.407Z,7.13
2022-09-23T00:28:49.227Z,9.60
2022-09-23T00:31:19.376Z,6.68
2022-09-23T00:33:46.145Z,7.63
2022-09-23T00:36:15.077Z,6.05
2022-09-23T00:38:42.156Z,5.05
2022-09-23T00:41:08.800Z,5.60
2022-09-23T00:43:40.303Z,6.85
2022-09-23T00:46:09.022Z,5.00
2022-09-23T00:48:39.638Z,6.15
2022-09-23T00:51:09.095Z,5.13
2022-09-23T00:53:36.027Z,4.82
2022-09-23T00:56:05.980Z,4.40
2022-09-23T00:58:36.204Z,6.00
2022-09-23T01:01:04.040Z,6.47
2022-09-23T01:03:31.063Z,4.45
2022-09-23T01:05:59.233Z,5.38
2022-09-23T01:08:27.618Z,4.60
2022-09-23T01:11:02.866Z,9.25
2022-09-23T01:13:35.893Z,5.72
2022-09-23T01:16:08.405Z,5.63
2022-09-23T01:18:42.416Z,4.97
2022-09-23T01:21:23.460Z,4.70
2022-09-23T01:24:25.560Z,5.75
2022-09-23T01:27:01.491Z,6.00
2022-09-23T01:30:06.705Z,6.25
2022-09-23T01:32:43.103Z,5.43
2022-09-23T01:35:20.041Z,5.60
2022-09-23T01:37:51.021Z,4.45
2022-09-23T01:40:23.342Z,6.60
2022-09-23T01:42:56.139Z,7.35
2022-09-23T01:45:29.602Z,4.53
2022-09-23T01:50:32.993Z,4.57
2022-09-23T01:53:05.073Z,6.68
2022-09-23T01:55:36.374Z,5.32
2022-09-23T01:58:07.413Z,5.70
2022-09-23T02:00:39.225Z,4.63
2022-09-23T02:03:13.042Z,6.05
2022-09-23T02:05:44.808Z,9.50
2022-09-23T02:08:17.213Z,4.50
2022-09-23T02:10:47.287Z,6.22
2022-09-23T02:13:19.849Z,5.93
2022-09-23T02:15:52.861Z,5.07
2022-09-23T02:18:24.326Z,4.15
2022-09-23T02:20:55.648Z,4.63
2022-09-23T02:23:27.509Z,4.03
2022-09-23T02:25:58.014Z,4.20
2022-09-23T02:28:32.181Z,8.48
2022-09-23T02:31:07.119Z,6.18
2022-09-23T02:33:39.853Z,6.38
2022-09-23T02:36:12.374Z,5.73
2022-09-23T02:38:43.662Z,6.27
2022-09-23T02:41:15.066Z,5.18
2022-09-23T02:43:47.633Z,5.65
2022-09-23T02:46:15.169Z,4.33
2022-09-23T02:48:46.553Z,11.93
2022-09-23T02:51:13.503Z,6.65
2022-09-23T02:53:40.177Z,5.10
2022-09-23T02:56:14.666Z,4.80
2022-09-23T02:58:41.582Z,6.53
2022-09-23T03:01:18.573Z,5.90
2022-09-23T03:03:55.766Z,4.55
2022-09-23T03:06:30.421Z,4.70
2022-09-23T03:09:02.460Z,4.07
2022-09-23T03:11:29.113Z,6.88
2022-09-23T03:14:05.396Z,9.27
2022-09-23T03:16:39.762Z,6.15
2022-09-23T03:19:19.620Z,5.78
2022-09-23T03:21:53.094Z,9.30
2022-09-23T03:26:48.605Z,6.30
2022-09-23T03:29:18.447Z,9.07
2022-09-23T03:31:45.205Z,6.03
2022-09-23T03:34:16.191Z,9.18
2022-09-23T03:36:49.202Z,8.63
2022-09-23T03:39:26.739Z,6.63
2022-09-23T03:41:56.895Z,8.32
2022-09-23T03:44:23.612Z,7.70
2022-09-23T03:46:50.233Z,7.35
2022-09-23T03:49:24.185Z,5.80
2022-09-23T03:51:50.798Z,6.10
2022-09-23T03:54:17.439Z,7.93
2022-09-23T03:56:43.990Z,6.13
2022-09-23T03:59:10.688Z,5.88
2022-09-23T04:01:37.328Z,7.18
2022-09-23T04:04:03.953Z,6.07
2022-09-23T04:06:31.951Z,6.10
2022-09-23T04:08:58.676Z,7.53
2022-09-23T04:11:25.288Z,6.70
2022-09-23T04:13:51.867Z,8.07
2022-09-23T04:16:18.526Z,7.95
2022-09-23T04:18:45.106Z,6.47
2022-09-23T04:21:11.777Z,8.27
2022-09-23T04:23:39.704Z,6.97
2022-09-23T04:26:06.816Z,10.05
2022-09-23T04:28:33.962Z,6.65
2022-09-23T04:31:04.014Z,7.82
2022-09-23T04:33:30.640Z,10.15
2022-09-23T04:35:57.390Z,9.27
2022-09-23T04:38:23.981Z,9.00
2022-09-23T04:40:51.964Z,11.27
2022-09-23T04:43:18.637Z,9.70
2022-09-23T04:45:45.558Z,8.10
2022-09-23T04:48:12.526Z,8.35
2022-09-23T04:50:39.380Z,8.20
2022-09-23T04:53:06.312Z,9.02
2022-09-23T04:55:32.914Z,8.80
2022-09-23T04:58:00.811Z,9.98
2022-09-23T05:00:27.433Z,10.77
2022-09-23T05:02:54.167Z,11.32
2022-09-23T05:05:20.730Z,11.75
2022-09-23T05:07:47.938Z,15.20
2022-09-23T05:10:14.936Z,11.57
2022-09-23T05:12:41.519Z,11.07
2022-09-23T05:15:09.911Z,8.90
2022-09-23T05:17:36.545Z,10.35
2022-09-23T05:20:03.871Z,11.80
2022-09-23T05:22:30.666Z,9.57
2022-09-23T05:24:57.311Z,8.27
2022-09-23T05:27:23.946Z,9.15
2022-09-23T05:29:50.473Z,6.93
2022-09-23T05:32:18.473Z,9.25
2022-09-23T05:34:45.055Z,11.93
2022-09-23T05:37:11.706Z,11.25
2022-09-23T05:39:38.380Z,16.23
2022-09-23T05:42:05.428Z,7.68
2022-09-23T05:44:32.001Z,8.95
2022-09-23T05:46:58.621Z,8.45
2022-09-23T05:49:42.608Z,8.23
2022-09-23T05:52:09.439Z,10.27
2022-09-23T05:54:36.109Z,6.55
2022-09-23T05:57:04.878Z,6.45
2022-09-23T05:59:32.002Z,10.90
2022-09-23T06:01:58.651Z,8.75
2022-09-23T06:04:26.719Z,8.13
2022-09-23T06:06:53.307Z,8.93
2022-09-23T06:09:19.972Z,18.02
2022-09-23T06:11:46.680Z,13.88
2022-09-23T06:14:14.093Z,13.63
2022-09-23T06:16:40.673Z,16.23
2022-09-23T06:19:07.373Z,16.73
2022-09-23T06:21:37.841Z,15.90
2022-09-23T06:24:05.822Z,13.23
2022-09-23T06:26:32.855Z,13.10
2022-09-23T06:29:00.602Z,14.38
2022-09-23T06:31:27.437Z,14.20
2022-09-23T06:34:04.939Z,13.13
2022-09-23T06:36:43.023Z,13.40
2022-09-23T06:39:10.861Z,14.25
2022-09-23T06:41:37.455Z,14.60
2022-09-23T06:44:04.121Z,14.02
2022-09-23T06:46:30.777Z,14.00
2022-09-23T06:48:57.728Z,16.52
2022-09-23T06:51:24.304Z,13.85
2022-09-23T06:53:52.403Z,17.40
2022-09-23T06:56:18.917Z,12.40
2022-09-23T06:58:45.785Z,12.85
2022-09-23T07:01:15.001Z,12.75
2022-09-23T07:03:41.808Z,11.68
2022-09-23T07:06:08.999Z,14.30
2022-09-23T07:08:35.889Z,9.40
2022-09-23T07:11:06.568Z,14.02
2022-09-23T07:13:34.017Z,11.57
2022-09-23T07:16:01.890Z,11.13
2022-09-23T07:18:36.217Z,15.57
2022-09-23T07:21:08.655Z,10.48
2022-09-23T07:23:35.785Z,14.43
2022-09-23T07:26:04.818Z,13.45
2022-09-23T07:28:31.709Z,17.58
2022-09-23T07:31:03.612Z,20.67
2022-09-23T07:33:32.723Z,19.58
2022-09-23T07:35:59.881Z,12.90
2022-09-23T07:38:26.425Z,11.95
2022-09-23T07:40:53.045Z,12.35
2022-09-23T07:43:21.043Z,8.75
2022-09-23T07:45:47.671Z,9.60
2022-09-23T07:48:14.246Z,9.27
2022-09-23T07:50:40.816Z,9.00
2022-09-23T07:53:07.371Z,10.35
2022-09-23T07:55:34.456Z,14.27
2022-09-23T07:58:01.343Z,7.50
2022-09-23T08:00:29.505Z,13.23
2022-09-23T08:02:56.334Z,7.95
2022-09-23T08:05:23.304Z,9.48
2022-09-23T08:07:49.821Z,8.57
2022-09-23T08:10:16.573Z,7.22
2022-09-23T08:12:43.223Z,6.55
2022-09-23T08:15:10.317Z,7.18
2022-09-23T08:17:38.293Z,5.45
2022-09-23T08:20:06.146Z,6.25
2022-09-23T08:22:32.979Z,9.00
2022-09-23T08:24:59.613Z,5.90
2022-09-23T08:27:26.171Z,5.93
2022-09-23T08:29:52.726Z,5.38
2022-09-23T08:32:19.341Z,7.22
2022-09-23T08:34:47.443Z,5.60
2022-09-23T08:37:14.225Z,7.13
2022-09-23T08:39:40.918Z,6.70
2022-09-23T08:42:16.214Z,4.22
2022-09-23T08:44:48.028Z,4.53
2022-09-23T08:47:20.685Z,6.95
2022-09-23T08:49:58.655Z,6.20
2022-09-23T08:52:33.101Z,4.97
2022-09-23T08:54:59.921Z,6.00
2022-09-23T08:57:39.933Z,6.28
2022-09-23T09:00:07.635Z,4.88
2022-09-23T09:02:35.789Z,5.72
2022-09-23T09:05:08.653Z,4.88
2022-09-23T09:07:38.573Z,7.00
2022-09-23T09:10:15.073Z,4.70
2022-09-23T09:12:44.804Z,3.90
2022-09-23T09:15:14.201Z,5.10
2022-09-23T09:17:50.115Z,6.18
2022-09-23T09:20:23.644Z,7.47
2022-09-23T09:25:25.138Z,4.93
2022-09-23T09:27:54.502Z,5.60
2022-09-23T09:30:21.619Z,3.50
2022-09-23T09:32:52.213Z,6.22
2022-09-23T09:35:27.212Z,5.30
2022-09-23T09:37:53.842Z,6.75
2022-09-23T09:40:20.606Z,3.08
2022-09-23T09:42:49.649Z,2.78
2022-09-23T09:45:26.026Z,3.90
2022-09-23T09:48:00.969Z,5.28
2022-09-23T09:50:47.820Z,2.72
2022-09-23T09:53:22.832Z,3.35
2022-09-23T09:56:04.332Z,2.55
2022-09-23T09:58:36.192Z,2.72
2022-09-23T10:01:05.549Z,2.63
2022-09-23T10:03:37.288Z,2.40
2022-09-23T10:06:16.873Z,4.13
2022-09-23T10:09:02.263Z,3.60
2022-09-23T10:11:29.801Z,3.20
2022-09-23T10:14:10.066Z,4.35
2022-09-23T10:16:36.873Z,3.38
2022-09-23T10:19:11.265Z,3.03
2022-09-23T10:21:39.321Z,4.72
2022-09-23T10:24:07.781Z,17.38
2022-09-23T10:26:42.040Z,1.63
2022-09-23T10:29:23.361Z,3.15
2022-09-23T10:31:50.150Z,2.72
2022-09-23T10:34:23.577Z,3.40
2022-09-23T10:39:22.345Z,3.72
2022-09-23T10:42:03.622Z,2.00
2022-09-23T10:44:40.623Z,3.08
2022-09-23T10:47:15.556Z,1.95
2022-09-23T10:50:03.340Z,1.55
2022-09-23T10:52:44.691Z,2.55
2022-09-23T10:55:34.022Z,2.90
2022-09-23T10:58:22.570Z,1.90
2022-09-23T11:01:02.255Z,4.28
2022-09-23T11:03:55.223Z,2.03
2022-09-23T11:06:27.077Z,1.83
2022-09-23T11:09:09.500Z,3.55
2022-09-23T11:11:48.555Z,2.35
2022-09-23T11:14:44.024Z,3.92
2022-09-23T11:17:30.493Z,3.80
2022-09-23T11:20:29.383Z,3.33
2022-09-23T11:23:17.492Z,3.08
2022-09-23T11:25:52.094Z,2.33
2022-09-23T11:28:41.281Z,3.90
2022-09-23T11:31:19.322Z,3.75
2022-09-23T11:33:59.054Z,2.05
2022-09-23T11:36:32.436Z,1.85
2022-09-23T11:39:06.056Z,1.75
2022-09-23T11:41:40.363Z,2.33
2022-09-23T11:44:14.802Z,5.70
2022-09-23T11:46:46.741Z,2.15
2022-09-23T11:49:16.503Z,2.05
2022-09-23T11:51:56.140Z,1.70
2022-09-23T11:54:28.593Z,2.08
2022-09-23T11:57:01.221Z,2.15
2022-09-23T11:59:40.871Z,2.10
2022-09-23T12:02:21.407Z,2.00
2022-09-23T12:04:58.475Z,1.10
2022-09-23T12:07:31.127Z,2.75
2022-09-23T12:10:03.739Z,2.58
2022-09-23T12:12:39.542Z,4.85
2022-09-23T12:15:13.598Z,1.73
2022-09-23T12:17:56.695Z,2.35
2022-09-23T12:20:41.785Z,4.30
2022-09-23T12:23:25.516Z,2.10
2022-09-23T12:28:26.615Z,2.33
2022-09-23T12:30:56.365Z,1.77
2022-09-23T12:33:25.680Z,2.00
2022-09-23T12:35:54.091Z,1.00
2022-09-23T12:38:25.737Z,2.00
2022-09-23T12:40:54.734Z,1.40
2022-09-23T12:43:31.636Z,1.67
2022-09-23T12:52:24.796Z,2.85
2022-09-23T12:54:55.458Z,1.05
2022-09-23T12:57:40.360Z,0.82
2022-09-23T13:00:25.679Z,1.63
2022-09-23T13:02:56.410Z,1.13
2022-09-23T13:05:25.180Z,1.27
2022-09-23T13:07:59.576Z,1.40
2022-09-23T13:10:30.873Z,1.27
2022-09-23T13:12:59.501Z,1.55
2022-09-23T13:15:31.996Z,0.82
2022-09-23T13:18:40.638Z,1.13
2022-09-23T13:21:17.529Z,2.22
2022-09-23T13:24:16.721Z,2.90
2022-09-23T13:26:45.744Z,1.08
2022-09-23T13:29:19.227Z,2.15
2022-09-23T13:34:19.956Z,1.25
2022-09-23T13:36:48.350Z,1.67
2022-09-23T13:39:15.673Z,1.95
2022-09-23T13:41:45.306Z,2.28
2022-09-23T13:44:17.271Z,2.65
2022-09-23T13:46:49.451Z,1.20
2022-09-23T13:49:22.492Z,2.22
2022-09-23T13:51:50.815Z,3.47
2022-09-23T13:54:27.861Z,1.83
2022-09-23T13:56:54.957Z,1.13
2022-09-23T13:59:25.510Z,0.73
2022-09-23T14:02:04.890Z,1.80
2022-09-23T14:04:31.748Z,1.33
2022-09-23T14:06:58.603Z,1.63
2022-09-23T14:09:27.892Z,3.83
2022-09-23T14:11:56.457Z,1.83
2022-09-23T14:14:23.491Z,2.78
2022-09-23T14:16:51.638Z,2.83
2022-09-23T14:19:22.037Z,4.15
2022-09-23T14:21:49.851Z,3.45
2022-09-23T14:24:19.216Z,2.05
2022-09-23T14:26:48.776Z,1.85
2022-09-23T14:29:17.726Z,1.85
2022-09-23T14:31:51.428Z,2.58
2022-09-23T14:34:49.872Z,2.22
2022-09-23T14:37:26.755Z,0.90
2022-09-23T14:39:57.593Z,1.92
2022-09-23T14:42:24.526Z,1.60
2022-09-23T14:44:51.397Z,2.80
2022-09-23T14:47:18.276Z,2.58
2022-09-23T14:49:49.485Z,1.73
2022-09-23T14:52:17.269Z,0.82
2022-09-23T14:54:44.155Z,2.97
2022-09-23T14:57:28.406Z,1.13
2022-09-23T14:59:59.110Z,5.07
2022-09-23T15:02:34.973Z,1.90
2022-09-23T15:05:19.206Z,3.83
2022-09-23T15:07:52.559Z,3.17
2022-09-23T15:10:23.155Z,1.27
2022-09-23T15:12:51.596Z,1.90
2022-09-23T15:15:19.112Z,1.45
2022-09-23T15:17:46.587Z,4.05
2022-09-23T15:20:23.479Z,1.00
2022-09-23T15:22:52.157Z,2.70
2022-09-23T15:25:21.156Z,3.65
2022-09-23T15:27:59.605Z,2.28
2022-09-23T15:30:26.603Z,0.90
2022-09-23T15:32:53.234Z,1.55
2022-09-23T15:35:23.849Z,0.95
2022-09-23T15:37:50.755Z,1.98
2022-09-23T15:40:35.794Z,1.33
2022-09-23T15:43:17.992Z,0.95
2022-09-23T15:45:48.850Z,1.10
2022-09-23T15:48:17.773Z,2.30
2022-09-23T15:50:46.002Z,2.55
2022-09-23T15:53:15.591Z,1.40
2022-09-23T15:55:42.382Z,1.52
2022-09-23T15:58:09.080Z,2.40
2022-09-23T16:00:36.535Z,1.80
2022-09-23T16:03:04.611Z,1.95
2022-09-23T16:05:35.448Z,4.35
2022-09-23T16:08:08.728Z,2.90
2022-09-23T16:10:37.088Z,3.65
2022-09-23T16:13:06.329Z,2.42
2022-09-23T16:15:33.853Z,4.20
2022-09-23T16:18:00.930Z,5.70
2022-09-23T16:20:29.891Z,4.10
2022-09-23T16:22:59.585Z,5.13
2022-09-23T16:25:29.777Z,4.05
2022-09-23T16:27:57.566Z,5.82
2022-09-23T16:30:26.375Z,3.28
2022-09-23T16:32:55.250Z,4.55
2022-09-23T16:35:23.810Z,2.92
2022-09-23T16:37:51.734Z,3.28
2022-09-23T16:40:20.500Z,4.00
2022-09-23T16:42:49.479Z,3.25
2022-09-23T16:45:17.507Z,5.25
2022-09-23T16:47:45.108Z,3.28
2022-09-23T16:50:17.089Z,3.05
2022-09-23T16:52:44.601Z,4.75
2022-09-23T16:55:13.217Z,2.60
2022-09-23T16:57:40.716Z,4.53
2022-09-23T17:00:13.013Z,3.40
2022-09-23T17:02:40.000Z,4.60
2022-09-23T17:05:07.581Z,2.75
2022-09-23T17:07:34.500Z,5.85
2022-09-23T17:10:01.474Z,4.72
2022-09-23T17:12:31.036Z,3.25
2022-09-23T17:14:57.757Z,26.63
2022-09-23T17:17:26.210Z,152.85
2022-09-23T17:19:53.047Z,218.73
2022-09-23T17:22:20.043Z,236.60
2022-09-23T17:24:46.828Z,317.27
2022-09-23T17:27:14.896Z,345.38
2022-09-23T17:29:41.733Z,410.98
2022-09-23T17:32:08.602Z,371.88
2022-09-23T17:34:36.655Z,346.38
2022-09-23T17:37:03.693Z,338.75
2022-09-23T17:39:30.502Z,294.48
2022-09-23T17:41:58.973Z,261.25
2022-09-23T17:44:25.784Z,175.23
2022-09-23T17:46:52.949Z,137.85
2022-09-23T17:49:19.789Z,108.32
2022-09-23T17:51:48.049Z,87.55
2022-09-23T17:54:14.858Z,81.85
2022-09-23T17:56:41.933Z,63.38
2022-09-23T17:59:10.530Z,35.53
2022-09-23T18:01:37.497Z,37.38
2022-09-23T18:04:04.704Z,31.42
2022-09-23T18:06:32.683Z,21.90
2022-09-23T18:09:01.577Z,16.20
2022-09-23T18:11:31.167Z,14.45
2022-09-23T18:13:59.660Z,14.77
2022-09-23T18:16:29.226Z,14.20
2022-09-23T18:18:57.416Z,9.00
2022-09-23T18:21:25.999Z,12.10
2022-09-23T18:23:52.956Z,9.27
2022-09-23T18:26:23.492Z,12.40
2022-09-23T18:28:51.470Z,9.35
2022-09-23T18:31:18.921Z,11.82
2022-09-23T18:33:49.360Z,7.68
2022-09-23T18:36:16.300Z,8.02
2022-09-23T18:38:43.174Z,10.13
2022-09-23T18:41:09.808Z,12.23
2022-09-23T18:43:41.544Z,10.95
2022-09-23T18:46:12.989Z,12.75
2022-09-23T18:48:40.257Z,14.82
2022-09-23T18:51:08.116Z,14.90
2022-09-23T18:53:35.014Z,14.45
2022-09-23T18:56:05.445Z,12.63
2022-09-23T18:58:32.427Z,10.45
2022-09-23T19:01:05.280Z,11.13
2022-09-23T19:03:32.183Z,8.82
2022-09-23T19:06:06.097Z,11.85
2022-09-23T19:08:33.423Z,8.75
2022-09-23T19:11:01.815Z,10.13
2022-09-23T19:13:29.363Z,11.65
2022-09-23T19:16:00.869Z,11.35
2022-09-23T19:18:29.905Z,9.85
2022-09-23T19:20:57.470Z,9.02
2022-09-23T19:23:24.128Z,8.48
2022-09-23T19:25:51.032Z,8.18
2022-09-23T19:28:17.921Z,9.75
2022-09-23T19:30:44.824Z,6.88
2022-09-23T19:33:11.934Z,6.07
2022-09-23T19:35:47.257Z,8.13
2022-09-23T19:38:19.198Z,4.57
2022-09-23T19:40:49.756Z,5.07
2022-09-23T19:43:16.886Z,5.22
2022-09-23T19:45:43.871Z,5.38
2022-09-23T19:48:11.036Z,6.57
2022-09-23T19:50:38.920Z,7.13
2022-09-23T19:53:07.627Z,8.05
2022-09-23T19:55:35.422Z,6.93
2022-09-23T19:58:02.622Z,8.05
2022-09-23T20:00:29.594Z,9.52
2022-09-23T20:02:56.898Z,7.07
2022-09-23T20:05:23.808Z,7.88
2022-09-23T20:07:50.560Z,8.52
2022-09-23T20:10:18.677Z,9.30
2022-09-23T20:12:45.280Z,8.02
2022-09-23T20:15:12.050Z,8.80
2022-09-23T20:17:38.688Z,7.38
2022-09-23T20:20:05.931Z,8.70
2022-09-23T20:22:33.654Z,10.52
2022-09-23T20:25:00.597Z,9.82
2022-09-23T20:27:29.217Z,7.20
2022-09-23T20:29:55.793Z,7.25
2022-09-23T20:32:22.495Z,7.05
2022-09-23T20:34:49.211Z,6.32
2022-09-23T20:37:16.989Z,6.50
2022-09-23T20:39:44.483Z,7.05
2022-09-23T20:42:11.592Z,8.02
2022-09-23T20:44:39.680Z,5.38
2022-09-23T20:47:06.900Z,8.82
2022-09-23T20:49:33.511Z,5.75
2022-09-23T20:52:00.265Z,8.32
2022-09-23T20:54:26.863Z,6.70
2022-09-23T20:56:53.485Z,6.80
2022-09-23T20:59:20.165Z,6.82
2022-09-23T21:01:48.246Z,6.18
2022-09-23T21:04:15.142Z,8.55
2022-09-23T21:06:41.746Z,7.10
2022-09-23T21:09:08.372Z,5.15
2022-09-23T21:11:34.882Z,7.13
2022-09-23T21:14:02.131Z,7.82
2022-09-23T21:16:29.488Z,8.32
2022-09-23T21:18:59.004Z,7.80
2022-09-23T21:21:26.326Z,6.65
2022-09-23T21:23:52.845Z,8.88
2022-09-23T21:26:21.318Z,9.88
2022-09-23T21:28:49.823Z,8.70
2022-09-23T21:31:17.967Z,7.55
2022-09-23T21:33:44.630Z,9.35
2022-09-23T21:36:12.487Z,10.60
2022-09-23T21:38:39.363Z,7.78
2022-09-23T21:41:09.833Z,7.22
2022-09-23T21:43:38.410Z,11.32
2022-09-23T21:46:06.762Z,7.68
2022-09-23T21:48:34.808Z,8.88
2022-09-23T21:51:03.741Z,9.75
2022-09-23T21:53:33.656Z,7.80
2022-09-23T21:56:01.725Z,13.95
2022-09-23T21:58:28.873Z,6.25
2022-09-23T22:00:55.474Z,9.00
2022-09-23T22:03:22.337Z,5.65
2022-09-23T22:05:58.927Z,8.00
2022-09-23T22:08:25.498Z,7.43
2022-09-23T22:10:53.513Z,6.25
2022-09-23T22:13:20.236Z,7.65
2022-09-23T22:15:46.860Z,6.25
2022-09-23T22:18:13.447Z,7.45
2022-09-23T22:20:40.158Z,7.20
2022-09-23T22:23:06.783Z,6.20
2022-09-23T22:25:33.336Z,8.73
2022-09-23T22:28:01.731Z,6.82
2022-09-23T22:30:28.311Z,7.15
2022-09-23T22:32:55.308Z,7.97
2022-09-23T22:35:22.031Z,6.70
2022-09-23T22:37:48.602Z,7.22
2022-09-23T22:40:15.834Z,7.38
2022-09-23T22:42:43.504Z,7.53
2022-09-23T22:45:11.999Z,7.57
2022-09-23T22:47:40.695Z,7.80
2022-09-23T22:50:09.090Z,7.15
2022-09-23T22:52:35.677Z,7.20
2022-09-23T22:55:02.331Z,9.30
2022-09-23T22:57:31.596Z,5.47
2022-09-23T22:59:58.183Z,6.13
2022-09-23T23:02:26.272Z,6.72
2022-09-23T23:04:52.836Z,8.63
2022-09-23T23:07:20.675Z,8.32
2022-09-23T23:09:47.549Z,6.07
2022-09-23T23:12:14.249Z,8.85
2022-09-23T23:14:40.895Z,9.30
2022-09-23T23:17:07.500Z,14.43
2022-09-23T23:19:36.192Z,12.73
2022-09-23T23:22:03.021Z,16.20
2022-09-23T23:24:29.660Z,18.05
2022-09-23T23:26:56.407Z,12.52
2022-09-23T23:29:23.154Z,13.60
2022-09-23T23:31:50.436Z,13.02
2022-09-23T23:34:19.760Z,15.68
2022-09-23T23:36:48.714Z,11.00
2022-09-23T23:39:15.284Z,12.65
2022-09-23T23:41:42.154Z,8.95
2022-09-23T23:44:12.183Z,10.30
2022-09-23T23:46:38.968Z,10.45
2022-09-23T23:49:05.653Z,8.02
2022-09-23T23:51:32.231Z,6.88
2022-09-23T23:54:00.332Z,7.28
2022-09-23T23:56:27.447Z,6.47
2022-09-23T23:58:55.378Z,10.63
